地図

経路データ

SID SEASON NUMBER BASIN SUBBASIN NAME ISO_TIME NATURE LAT LON WMO_WIND WMO_PRES WMO_AGENCY TRACK_TYPE DIST2LAND LANDFALL IFLAG USA_AGENCY USA_ATCF_ID USA_LAT USA_LON USA_RECORD USA_STATUS USA_WIND USA_PRES USA_SSHS USA_R34_NE USA_R34_SE USA_R34_SW USA_R34_NW USA_R50_NE USA_R50_SE USA_R50_SW USA_R50_NW USA_R64_NE USA_R64_SE USA_R64_SW USA_R64_NW USA_POCI USA_ROCI USA_RMW USA_EYE TOKYO_LAT TOKYO_LON TOKYO_GRADE TOKYO_WIND TOKYO_PRES TOKYO_R50_DIR TOKYO_R50_LONG TOKYO_R50_SHORT TOKYO_R30_DIR TOKYO_R30_LONG TOKYO_R30_SHORT TOKYO_LAND CMA_LAT CMA_LON CMA_CAT CMA_WIND CMA_PRES HKO_LAT HKO_LON HKO_CAT HKO_WIND HKO_PRES NEWDELHI_LAT NEWDELHI_LON NEWDELHI_GRADE NEWDELHI_WIND NEWDELHI_PRES NEWDELHI_CI NEWDELHI_DP NEWDELHI_POCI REUNION_LAT REUNION_LON REUNION_TYPE REUNION_WIND REUNION_PRES REUNION_TNUM REUNION_CI REUNION_RMW REUNION_R34_NE REUNION_R34_SE REUNION_R34_SW REUNION_R34_NW REUNION_R50_NE REUNION_R50_SE REUNION_R50_SW REUNION_R50_NW REUNION_R64_NE REUNION_R64_SE REUNION_R64_SW REUNION_R64_NW BOM_LAT BOM_LON BOM_TYPE BOM_WIND BOM_PRES BOM_TNUM BOM_CI BOM_RMW BOM_R34_NE BOM_R34_SE BOM_R34_SW BOM_R34_NW BOM_R50_NE BOM_R50_SE BOM_R50_SW BOM_R50_NW BOM_R64_NE BOM_R64_SE BOM_R64_SW BOM_R64_NW BOM_ROCI BOM_POCI BOM_EYE BOM_POS_METHOD BOM_PRES_METHOD NADI_LAT NADI_LON NADI_CAT NADI_WIND NADI_PRES WELLINGTON_LAT WELLINGTON_LON WELLINGTON_WIND WELLINGTON_PRES DS824_LAT DS824_LON DS824_STAGE DS824_WIND DS824_PRES TD9636_LAT TD9636_LON TD9636_STAGE TD9636_WIND TD9636_PRES TD9635_LAT TD9635_LON TD9635_WIND TD9635_PRES TD9635_ROCI NEUMANN_LAT NEUMANN_LON NEUMANN_CLASS NEUMANN_WIND NEUMANN_PRES MLC_LAT MLC_LON MLC_CLASS MLC_WIND MLC_PRES USA_GUST BOM_GUST BOM_GUST_PER REUNION_GUST REUNION_GUST_PER USA_SEAHGT USA_SEARAD_NE USA_SEARAD_SE USA_SEARAD_SW USA_SEARAD_NW STORM_SPEED STORM_DIR
1929039S18058 1929 9 SI MM NOT_NAMED 1929-02-07 18:00:00 NR -18.4000 57.8000 main 190 178 __________O___ -1 -18.4000 57.8000 7 6 253
1929039S18058 1929 9 SI MM NOT_NAMED 1929-02-07 21:00:00 NR -18.4871 57.4904 main 178 169 __________P___ -1 -18.4871 57.4904 7 6 254
1929039S18058 1929 9 SI MM NOT_NAMED 1929-02-08 00:00:00 NR -18.5792 57.1546 main 170 168 __________P___ -1 -18.5792 57.1546 7 7 254
1929039S18058 1929 9 SI MM NOT_NAMED 1929-02-08 03:00:00 NR -18.6818 56.7665 main 172 172 __________P___ -1 -18.6818 56.7665 7 8 255
1929039S18058 1929 9 SI MM NOT_NAMED 1929-02-08 06:00:00 NR -18.8000 56.3000 main 192 192 __________O___ -1 -18.8000 56.3000 7 10 255
1929039S18058 1929 9 SI MM NOT_NAMED 1929-02-08 09:00:00 NR -18.9366 55.7423 main 231 212 __________P___ -1 -18.9366 55.7423 7 11 255
1929039S18058 1929 9 SI MM NOT_NAMED 1929-02-08 12:00:00 NR -19.0865 55.1356 main 213 205 __________P___ -1 -19.0865 55.1356 7 12 255
1929039S18058 1929 9 SI MM NOT_NAMED 1929-02-08 15:00:00 NR -19.2429 54.5360 main 217 207 __________P___ -1 -19.2429 54.5360 7 11 254
1929039S18058 1929 9 SI MM NOT_NAMED 1929-02-08 18:00:00 NR -19.4000 54.0000 main 224 222 __________O___ -1 -19.4000 54.0000 7 9 249
1929039S18058 1929 9 SI MM NOT_NAMED 1929-02-08 21:00:00 NR -19.5605 53.6432 main 236 236 __________P___ -1 -19.5605 53.6432 7 7 242
1929039S18058 1929 9 SI MM NOT_NAMED 1929-02-09 00:00:00 NR -19.7202 53.3493 main 252 245 __________P___ -1 -19.7202 53.3493 7 6 241
1929039S18058 1929 9 SI MM NOT_NAMED 1929-02-09 03:00:00 NR -19.8699 53.0558 main 256 256 __________P___ -1 -19.8699 53.0558 7 7 245
1929039S18058 1929 9 SI MM NOT_NAMED 1929-02-09 06:00:00 NR -20.0000 52.7000 main 287 287 __________O___ -1 -20.0000 52.7000 7 9 255
1929039S18058 1929 9 SI MM NOT_NAMED 1929-02-09 09:00:00 NR -20.0978 52.1562 main 331 293 __________P___ -1 -20.0978 52.1562 7 11 261
1929039S18058 1929 9 SI MM NOT_NAMED 1929-02-09 12:00:00 NR -20.1742 51.5499 main 282 230 __________P___ -1 -20.1742 51.5499 7 11 263
1929039S18058 1929 9 SI MM NOT_NAMED 1929-02-09 15:00:00 NR -20.2384 50.9436 main 220 170 __________P___ -1 -20.2384 50.9436 7 11 263
1929039S18058 1929 9 SI MM NOT_NAMED 1929-02-09 18:00:00 NR -20.3000 50.4000 main 170 132 __________O___ -1 -20.3000 50.4000 7 9 262
1929039S18058 1929 9 SI MM NOT_NAMED 1929-02-09 21:00:00 NR -20.3675 49.9658 main 132 94 __________P___ -1 -20.3675 49.9658 7 7 259
1929039S18058 1929 9 SI MM NOT_NAMED 1929-02-10 00:00:00 NR -20.4414 49.6252 main 94 80 __________P___ -1 -20.4414 49.6252 7 6 255
1929039S18058 1929 9 SI MM NOT_NAMED 1929-02-10 03:00:00 NR -20.5196 49.3471 main 70 56 __________P___ -1 -20.5196 49.3471 7 5 252
1929039S18058 1929 9 SI MM NOT_NAMED 1929-02-10 06:00:00 NR -20.6000 49.1000 main 56 __________O___ -1 -20.6000 49.1000 7 5 251

IBTrACS Databaseについて

本データベースは、米国NOAAが公開する1842年以降の世界の熱帯低気圧のベストトラックデータアーカイブInternational Best Track Archive for Climate Stewardship (IBTrACS)を、ウェブで閲覧しやすい形式に変換したものです。

最終更新日:2021-11-26